Time;durP1;ratioP1;P1;durP2;ratioP2;P2;SDS_P1;SDS_P2;PMS_P1;PMS_P2;Temp;Humidity;BMP_temperature;BMP_pressure;BME280_temperature;BME280_humidity;BME280_pressure;Samples;Min_cycle;Max_cycle;Signal;HPM_P1;HPM_P2
2023/07/05 05:03:42;;;;;;;3.53;0.98;;;18.70;99.90;;;;;;4924876;29;1150825;-75
2023/07/05 05:06:08;;;;;;;2.13;1.00;;;18.90;99.90;;;;;;4948831;29;20027;-77
2023/07/05 05:08:34;;;;;;;2.33;1.25;;;18.90;99.90;;;;;;4920430;29;20070;-75
2023/07/05 05:11:02;;;;;;;2.75;1.00;;;19.00;99.90;;;;;;4960442;29;20027;-74
2023/07/05 05:13:30;;;;;;;2.83;0.95;;;19.20;99.90;;;;;;4965444;29;20099;-77
2023/07/05 05:16:00;;;;;;;4.00;1.05;;;19.30;99.90;;;;;;4949319;29;20023;-80
2023/07/05 05:18:28;;;;;;;3.28;1.02;;;19.30;99.90;;;;;;4929099;29;20027;-75
2023/07/05 05:20:57;;;;;;;2.85;0.80;;;19.30;99.90;;;;;;4958064;28;20031;-76
2023/07/05 05:23:23;;;;;;;3.05;1.10;;;19.30;99.90;;;;;;4947953;29;20047;-75
2023/07/05 05:25:52;;;;;;;3.35;1.30;;;19.40;99.90;;;;;;4965482;29;20069;-75
2023/07/05 05:28:18;;;;;;;4.63;1.30;;;19.40;99.90;;;;;;4948146;29;20086;-76
2023/07/05 05:30:45;;;;;;;2.92;1.38;;;19.60;99.90;;;;;;4965286;29;20066;-76
2023/07/05 05:33:12;;;;;;;2.65;1.10;;;19.80;99.90;;;;;;4965636;29;20031;-76
2023/07/05 05:35:38;;;;;;;2.97;1.00;;;19.90;99.90;;;;;;4964874;29;20074;-76
2023/07/05 05:38:04;;;;;;;2.38;1.17;;;20.00;99.90;;;;;;4965394;29;20335;-76
2023/07/05 05:40:32;;;;;;;3.80;1.10;;;20.00;99.90;;;;;;4932232;29;20038;-75
2023/07/05 05:42:58;;;;;;;3.58;1.25;;;20.00;99.90;;;;;;4965463;29;20030;-74
2023/07/05 05:45:24;;;;;;;3.40;1.30;;;20.00;99.90;;;;;;4947695;29;20034;-77
2023/07/05 05:47:50;;;;;;;3.70;1.20;;;20.00;99.90;;;;;;4948313;29;20038;-73
2023/07/05 05:50:15;;;;;;;2.35;1.08;;;20.00;99.90;;;;;;4965441;29;20220;-76
2023/07/05 05:52:41;;;;;;;2.97;1.13;;;20.00;99.90;;;;;;4947735;29;20131;-77
2023/07/05 05:55:10;;;;;;;5.05;1.60;;;20.00;99.90;;;;;;4948101;29;20075;-76
2023/07/05 05:57:36;;;;;;;2.95;0.98;;;20.10;99.90;;;;;;4964660;29;20057;-76
2023/07/05 06:00:02;;;;;;;4.38;1.38;;;20.50;99.40;;;;;;4965072;29;20019;-73
2023/07/05 06:02:30;;;;;;;4.78;2.13;;;20.70;98.40;;;;;;4953220;29;20047;-74
2023/07/05 06:04:56;;;;;;;2.65;1.38;;;20.90;98.10;;;;;;4945642;29;20062;-76
2023/07/05 06:07:22;;;;;;;2.83;1.35;;;21.20;97.00;;;;;;4945530;29;20039;-73
2023/07/05 06:09:48;;;;;;;3.05;1.58;;;21.30;96.40;;;;;;4929094;29;20047;-75
2023/07/05 06:12:15;;;;;;;2.70;0.90;;;21.40;96.10;;;;;;4945635;29;20031;-74
2023/07/05 06:14:41;;;;;;;2.72;1.20;;;21.50;95.70;;;;;;4944189;29;20329;-74
2023/07/05 06:17:07;;;;;;;3.75;1.40;;;21.60;95.40;;;;;;4945832;29;20019;-73
2023/07/05 06:19:33;;;;;;;3.25;1.23;;;21.50;95.10;;;;;;4945554;29;20090;-76
2023/07/05 06:21:59;;;;;;;2.65;1.48;;;21.60;94.50;;;;;;4945862;29;20336;-74
2023/07/05 06:24:25;;;;;;;2.40;1.38;;;21.60;94.40;;;;;;4945373;29;20154;-78
2023/07/05 06:26:52;;;;;;;3.60;1.30;;;21.70;94.20;;;;;;4945518;29;20309;-77
2023/07/05 06:29:18;;;;;;;3.10;1.23;;;21.80;94.10;;;;;;4944723;29;20305;-76
2023/07/05 06:31:44;;;;;;;3.60;1.30;;;21.80;94.00;;;;;;4944781;29;20031;-76
2023/07/05 06:34:10;;;;;;;3.45;1.52;;;22.10;93.60;;;;;;4945472;29;20059;-74
2023/07/05 06:36:35;;;;;;;3.90;1.40;;;22.30;93.30;;;;;;4943938;29;20020;-74
2023/07/05 06:39:02;;;;;;;3.10;1.20;;;22.40;92.90;;;;;;4945753;29;20047;-74
2023/07/05 06:41:28;;;;;;;4.00;1.50;;;22.30;93.40;;;;;;4949039;29;20094;-75
2023/07/05 06:43:54;;;;;;;3.65;1.58;;;22.00;96.80;;;;;;4950560;29;20028;-75
2023/07/05 06:46:20;;;;;;;5.88;1.75;;;21.40;98.60;;;;;;4954037;29;20131;-73
2023/07/05 06:48:45;;;;;;;3.90;1.10;;;20.80;99.90;;;;;;4952611;29;20031;-74
2023/07/05 06:51:11;;;;;;;4.60;1.30;;;20.20;99.90;;;;;;4952152;29;20075;-75
2023/07/05 06:53:38;;;;;;;3.10;1.42;;;19.60;99.90;;;;;;4947784;29;20054;-76
2023/07/05 06:56:04;;;;;;;3.88;1.42;;;19.00;99.90;;;;;;4949317;29;20098;-73
2023/07/05 06:58:30;;;;;;;5.18;1.40;;;18.60;99.90;;;;;;4947452;29;20067;-74
2023/07/05 07:00:56;;;;;;;4.53;1.60;;;18.30;99.90;;;;;;4949082;29;20035;-75
2023/07/05 07:03:21;;;;;;;5.45;2.10;;;18.00;99.90;;;;;;4931456;29;20228;-74
2023/07/05 07:05:51;;;;;;;4.40;1.75;;;17.90;99.90;;;;;;4948612;29;20220;-75
2023/07/05 07:08:18;;;;;;;5.45;1.95;;;17.80;99.90;;;;;;4948686;29;20032;-74
2023/07/05 07:10:43;;;;;;;4.35;1.95;;;17.70;99.90;;;;;;4931085;29;20099;-74
2023/07/05 07:13:09;;;;;;;5.10;2.15;;;17.60;99.90;;;;;;4948835;29;20301;-75
2023/07/05 07:15:36;;;;;;;6.30;2.25;;;17.70;99.90;;;;;;4931346;29;20035;-77
2023/07/05 07:18:02;;;;;;;6.50;2.17;;;17.80;99.90;;;;;;4931737;29;20028;-76
2023/07/05 07:20:28;;;;;;;6.78;2.10;;;17.80;99.90;;;;;;4948277;29;20074;-75
2023/07/05 07:22:53;;;;;;;3.63;1.92;;;18.00;99.90;;;;;;4932054;29;20114;-75
2023/07/05 07:25:19;;;;;;;4.72;1.90;;;18.20;99.90;;;;;;4949495;29;20361;-74
2023/07/05 07:27:45;;;;;;;4.88;1.73;;;18.60;99.90;;;;;;4948444;29;20055;-75
2023/07/05 07:30:11;;;;;;;3.35;1.65;;;18.90;99.90;;;;;;4931524;29;20054;-76
2023/07/05 07:32:37;;;;;;;4.28;1.88;;;19.10;99.90;;;;;;4932415;29;20046;-76
2023/07/05 07:35:03;;;;;;;3.85;1.67;;;19.30;99.90;;;;;;4932675;29;20043;-74
2023/07/05 07:37:32;;;;;;;3.75;1.63;;;19.60;99.90;;;;;;4931887;29;20051;-76
2023/07/05 07:39:57;;;;;;;4.13;1.40;;;19.70;99.90;;;;;;4948863;29;20087;-76
2023/07/05 07:42:23;;;;;;;3.10;1.17;;;20.00;99.90;;;;;;4948904;29;20042;-75
2023/07/05 07:44:49;;;;;;;7.30;1.90;;;20.20;99.90;;;;;;4931293;29;20020;-76
2023/07/05 07:47:14;;;;;;;3.50;1.20;;;20.50;99.90;;;;;;4932471;29;20107;-75
2023/07/05 07:49:40;;;;;;;2.40;0.88;;;20.70;99.90;;;;;;4931334;29;20139;-77
2023/07/05 07:52:07;;;;;;;2.60;1.10;;;20.80;99.90;;;;;;4939571;29;20038;-77
2023/07/05 07:54:33;;;;;;;4.82;1.10;;;20.80;99.90;;;;;;4912587;29;20024;-75
2023/07/05 07:56:59;;;;;;;2.78;1.00;;;20.50;99.90;;;;;;4912636;29;20195;-76
2023/07/05 07:59:25;;;;;;;2.00;0.90;;;20.40;99.90;;;;;;4929453;29;20032;-76
2023/07/05 08:01:51;;;;;;;4.72;0.90;;;20.10;99.90;;;;;;4929094;29;20067;-76
2023/07/05 08:04:19;;;;;;;5.38;1.10;;;20.00;99.90;;;;;;4937359;29;20372;-75
2023/07/05 08:06:50;;;;;;;4.43;1.00;;;19.90;99.90;;;;;;4947181;29;20046;-76
2023/07/05 08:09:19;;;;;;;5.05;1.17;;;19.80;99.90;;;;;;4931342;29;20039;-76
2023/07/05 08:11:47;;;;;;;5.63;1.05;;;19.70;99.90;;;;;;4947411;29;20042;-74
2023/07/05 08:14:15;;;;;;;2.53;0.80;;;19.40;99.90;;;;;;4948816;29;20020;-75
2023/07/05 08:16:42;;;;;;;2.60;1.20;;;19.30;99.90;;;;;;4931234;29;20211;-75
2023/07/05 08:19:07;;;;;;;6.05;1.15;;;19.20;99.90;;;;;;4947999;29;20040;-75
2023/07/05 08:21:33;;;;;;;4.00;1.13;;;19.20;99.90;;;;;;4947035;29;20182;-76
2023/07/05 08:23:59;;;;;;;4.40;1.10;;;19.10;99.90;;;;;;4930565;29;20024;-75
2023/07/05 08:26:25;;;;;;;4.25;1.50;;;19.20;99.90;;;;;;4947694;29;20043;-74
2023/07/05 08:28:50;;;;;;;2.88;1.10;;;19.20;99.90;;;;;;4946819;29;20377;-74
2023/07/05 08:31:16;;;;;;;9.43;1.90;;;19.10;99.90;;;;;;4947595;29;20115;-76
2023/07/05 08:33:44;;;;;;;10.00;1.75;;;19.10;99.90;;;;;;4947282;29;20036;-73
2023/07/05 08:36:28;;;;;;;4.10;1.30;;;19.10;99.90;;;;;;4930408;29;20098;-74
2023/07/05 08:38:57;;;;;;;2.75;1.10;;;19.10;99.90;;;;;;4947269;29;20031;-74
2023/07/05 08:41:44;;;;;;;2.78;1.20;;;19.20;99.90;;;;;;4947272;29;20028;-75
2023/07/05 08:44:37;;;;;;;5.50;1.83;;;19.20;99.90;;;;;;4946214;29;20036;-80
2023/07/05 08:47:17;;;;;;;3.50;1.30;;;19.10;99.90;;;;;;4947046;29;20032;-76
2023/07/05 08:49:45;;;;;;;9.32;1.70;;;19.40;99.90;;;;;;4946641;29;20288;-73
2023/07/05 08:52:26;;;;;;;3.97;1.55;;;19.60;99.90;;;;;;4945659;29;20051;-75
2023/07/05 08:54:57;;;;;;;4.57;1.65;;;19.80;99.90;;;;;;4946374;29;20031;-73
2023/07/05 08:57:34;;;;;;;3.72;1.63;;;19.90;99.90;;;;;;4940536;29;20031;-72
2023/07/05 09:00:11;;;;;;;3.30;1.52;;;20.10;99.90;;;;;;4927610;29;20043;-73
2023/07/05 09:02:37;;;;;;;5.53;1.80;;;20.20;99.90;;;;;;4926923;29;20107;-72
2023/07/05 09:05:24;;;;;;;3.53;1.88;;;20.20;99.90;;;;;;4926494;29;20238;-75
2023/07/05 09:08:19;;;;;;;6.50;2.22;;;20.30;99.90;;;;;;4926826;29;20262;-71
2023/07/05 09:11:06;;;;;;;5.70;1.98;;;20.50;99.90;;;;;;4940710;29;20020;-73
2023/07/05 09:13:32;;;;;;;5.53;1.80;;;20.70;99.90;;;;;;4945890;29;20047;-69
2023/07/05 09:16:22;;;;;;;3.63;1.80;;;21.30;99.90;;;;;;4946379;29;20210;-71
2023/07/05 09:19:02;;;;;;;4.68;1.90;;;21.50;99.90;;;;;;4929302;29;20040;-75
2023/07/05 09:21:37;;;;;;;5.18;2.67;;;21.40;99.90;;;;;;4946560;29;20024;-73
2023/07/05 09:24:23;;;;;;;4.88;1.95;;;21.70;99.90;;;;;;4946679;29;20032;-71
2023/07/05 09:26:52;;;;;;;3.92;1.77;;;21.50;98.80;;;;;;4945610;29;20036;-67
2023/07/05 09:29:29;;;;;;;;;;;21.70;97.60;;;;;;4946721;29;20039;-73
2023/07/05 09:31:56;;;;;;;2.60;1.30;;;21.70;96.90;;;;;;4946159;29;19913;-69
2023/07/05 09:34:25;;;;;;;3.58;1.73;;;21.90;96.20;;;;;;4945991;29;20322;-72
2023/07/05 09:36:51;;;;;;;3.67;1.83;;;21.70;95.70;;;;;;4945566;29;20048;-72
2023/07/05 09:39:38;;;;;;;2.97;1.60;;;21.60;94.90;;;;;;4946392;29;20075;-72
2023/07/05 09:42:06;;;;;;;3.22;1.63;;;21.70;94.80;;;;;;4945896;29;20110;-73
2023/07/05 09:44:32;;;;;;;3.95;1.60;;;21.80;94.00;;;;;;4945366;29;20081;-73
2023/07/05 09:47:01;;;;;;;2.63;1.55;;;22.20;93.30;;;;;;4945932;29;20047;-75
2023/07/05 09:49:27;;;;;;;3.28;1.90;;;22.30;92.40;;;;;;4945905;29;20040;-73
2023/07/05 09:51:53;;;;;;;3.97;2.35;;;22.20;91.00;;;;;;4945534;29;20035;-72
2023/07/05 09:54:29;;;;;;;4.82;1.77;;;22.20;91.00;;;;;;4945830;29;20032;-71
2023/07/05 09:57:09;;;;;;;3.22;1.90;;;22.40;90.60;;;;;;4944617;29;20102;-71
2023/07/05 09:59:37;;;;;;;6.63;2.25;;;22.70;90.40;;;;;;4944397;29;20103;-71
2023/07/05 10:02:12;;;;;;;5.97;2.00;;;22.70;90.10;;;;;;4945057;29;20056;-70
2023/07/05 10:04:50;;;;;;;13.43;2.53;;;22.80;87.80;;;;;;4945446;29;20035;-71
2023/07/05 10:07:28;;;;;;;6.60;2.05;;;22.70;86.90;;;;;;4945598;29;20063;-70
2023/07/05 10:10:05;;;;;;;4.20;2.00;;;23.10;83.50;;;;;;4945133;29;20051;-73
2023/07/05 10:12:33;;;;;;;5.68;2.03;;;23.40;82.50;;;;;;4945608;29;20119;-72
2023/07/05 10:15:00;;;;;;;3.08;1.67;;;23.30;80.50;;;;;;4940443;29;20023;-69
2023/07/05 10:17:44;;;;;;;5.32;2.10;;;23.30;80.90;;;;;;4928696;29;20032;-71
2023/07/05 10:20:23;;;;;;;4.85;2.08;;;23.30;81.20;;;;;;4945040;29;20083;-72
2023/07/05 10:23:02;;;;;;;3.50;2.00;;;23.30;80.50;;;;;;4944962;29;20114;-72
2023/07/05 10:25:33;;;;;;;3.90;2.20;;;23.10;78.40;;;;;;4945617;29;20067;-74
2023/07/05 10:28:00;;;;;;;4.22;2.35;;;23.10;78.60;;;;;;4941119;29;20024;-73
2023/07/05 10:30:27;;;;;;;4.22;2.13;;;23.00;78.70;;;;;;4945267;29;20032;-73
2023/07/05 10:33:33;;;;;;;3.95;2.00;;;22.90;78.50;;;;;;4945225;29;20360;-71
2023/07/05 10:36:04;;;;;;;4.00;2.00;;;22.70;77.60;;;;;;4916433;29;20091;-72
2023/07/05 10:38:50;;;;;;;4.20;2.33;;;22.80;76.10;;;;;;4945428;29;20039;-73
2023/07/05 10:41:33;;;;;;;3.50;1.70;;;22.90;73.50;;;;;;4945731;29;20042;-72
2023/07/05 10:44:11;;;;;;;4.72;2.03;;;23.10;73.00;;;;;;4945411;29;20099;-71
2023/07/05 10:46:38;;;;;;;3.55;1.98;;;23.10;70.10;;;;;;4944868;29;20031;-73
2023/07/05 10:49:07;;;;;;;3.67;1.90;;;23.10;66.70;;;;;;4945533;29;20039;-71
2023/07/05 10:51:36;;;;;;;4.82;2.50;;;23.20;67.00;;;;;;4928313;29;20038;-72
2023/07/05 10:54:17;;;;;;;3.33;1.90;;;23.20;66.80;;;;;;4945226;29;20103;-71
2023/07/05 10:56:45;;;;;;;3.90;1.98;;;23.40;65.00;;;;;;4928170;29;20050;-71
2023/07/05 10:59:39;;;;;;;4.07;2.00;;;23.40;64.30;;;;;;4945535;29;20035;-71
2023/07/05 11:02:26;;;;;;;4.43;2.40;;;23.50;66.00;;;;;;4945037;29;20043;-71
2023/07/05 11:04:53;;;;;;;4.90;2.13;;;23.70;65.40;;;;;;4945068;29;20032;-70
2023/07/05 11:07:20;;;;;;;3.00;2.00;;;23.90;65.00;;;;;;4944993;29;20035;-71
2023/07/05 11:09:46;;;;;;;3.50;2.20;;;24.10;64.30;;;;;;4944442;29;20027;-72
2023/07/05 11:12:28;;;;;;;5.90;2.38;;;24.20;64.50;;;;;;4945085;29;20050;-71
2023/07/05 11:14:56;;;;;;;4.45;2.40;;;24.60;66.50;;;;;;4941753;29;20209;-72
2023/07/05 11:17:31;;;;;;;4.27;2.47;;;24.70;65.50;;;;;;4944612;29;20035;-71
2023/07/05 11:20:00;;;;;;;6.97;2.30;;;24.80;65.70;;;;;;4944637;29;20082;-73
2023/07/05 11:22:45;;;;;;;3.28;2.00;;;24.90;64.70;;;;;;4945102;29;20027;-70
2023/07/05 11:25:18;;;;;;;4.47;2.60;;;24.90;64.80;;;;;;4945352;29;20039;-71
2023/07/05 11:27:49;;;;;;;3.78;2.22;;;25.10;63.80;;;;;;4949499;29;20086;-71
2023/07/05 11:30:38;;;;;;;4.05;2.45;;;25.40;63.70;;;;;;4950637;29;20043;-71
2023/07/05 11:33:06;;;;;;;4.68;2.13;;;25.40;63.20;;;;;;4949976;29;20055;-71
2023/07/05 11:35:54;;;;;;;;;;;25.40;62.80;;;;;;4949169;29;20062;-71
2023/07/05 11:38:46;;;;;;;4.32;1.98;;;25.80;62.00;;;;;;4948585;29;19913;-72
2023/07/05 11:41:37;;;;;;;5.65;2.03;;;26.00;59.70;;;;;;4925826;29;20039;-72
2023/07/05 11:44:22;;;;;;;3.47;2.00;;;25.80;60.40;;;;;;4961272;28;20062;-74
2023/07/05 11:46:48;;;;;;;5.18;2.10;;;26.10;58.70;;;;;;4986250;28;20046;-73
2023/07/05 11:49:42;;;;;;;4.68;1.83;;;26.90;56.90;;;;;;4986809;28;20058;-73
2023/07/05 11:52:23;;;;;;;6.20;2.22;;;27.30;55.80;;;;;;4969207;28;20284;-73
2023/07/05 11:54:49;;;;;;;6.03;1.75;;;28.40;54.00;;;;;;4985742;28;20035;-74
2023/07/05 11:57:15;;;;;;;4.10;2.00;;;28.90;53.40;;;;;;4986985;28;20085;-73
2023/07/05 12:00:10;;;;;;;3.53;1.90;;;29.60;53.00;;;;;;4986105;28;20030;-70
2023/07/05 12:03:17;;;;;;;3.65;1.75;;;29.60;52.80;;;;;;4986366;28;20050;-72
2023/07/05 12:05:44;;;;;;;5.90;2.10;;;29.20;52.50;;;;;;4984902;28;20026;-72
2023/07/05 12:08:21;;;;;;;6.13;2.22;;;28.80;53.80;;;;;;4968925;28;20047;-71
2023/07/05 12:11:00;;;;;;;3.75;1.83;;;29.00;54.20;;;;;;4985525;28;20367;-72
2023/07/05 12:13:31;;;;;;;4.93;2.15;;;29.80;52.50;;;;;;4986281;28;20035;-72
2023/07/05 12:15:58;;;;;;;4.97;2.00;;;29.60;51.50;;;;;;4985509;28;20217;-73
2023/07/05 12:18:27;;;;;;;3.58;1.52;;;29.40;51.80;;;;;;4969248;28;20031;-71
2023/07/05 12:20:54;;;;;;;3.85;1.40;;;30.20;50.90;;;;;;4985583;28;20035;-71
2023/07/05 12:23:23;;;;;;;4.00;1.58;;;30.30;50.70;;;;;;4968755;28;20054;-74
2023/07/05 12:25:57;;;;;;;3.88;1.42;;;30.50;50.10;;;;;;4985362;28;20373;-72
2023/07/05 12:28:25;;;;;;;4.88;1.60;;;31.70;48.50;;;;;;4985803;28;20043;-71
2023/07/05 12:31:12;;;;;;;3.08;1.65;;;32.30;48.10;;;;;;4985675;28;20077;-72
2023/07/05 12:33:39;;;;;;;2.50;1.55;;;32.30;48.50;;;;;;4986167;28;20035;-71
2023/07/05 12:36:18;;;;;;;3.00;1.63;;;32.30;47.90;;;;;;4982767;28;20034;-75
2023/07/05 12:38:48;;;;;;;2.88;1.63;;;32.00;47.90;;;;;;4973202;28;20439;-74
2023/07/05 12:41:20;;;;;;;5.18;1.52;;;31.70;47.80;;;;;;4966587;29;20142;-71
2023/07/05 12:43:48;;;;;;;2.75;1.38;;;30.60;48.70;;;;;;4965609;29;20039;-72
2023/07/05 12:46:21;;;;;;;4.95;1.70;;;30.60;48.60;;;;;;4965862;29;20031;-72
2023/07/05 12:48:50;;;;;;;3.88;1.60;;;31.50;47.60;;;;;;4965957;29;20045;-73
2023/07/05 12:51:24;;;;;;;4.18;1.50;;;32.20;47.90;;;;;;4966234;29;20030;-72
2023/07/05 12:53:56;;;;;;;3.80;1.60;;;32.90;47.00;;;;;;4965756;29;20034;-71
2023/07/05 12:56:34;;;;;;;2.85;1.40;;;33.90;46.20;;;;;;4966186;29;20035;-71
2023/07/05 12:59:06;;;;;;;3.72;1.73;;;34.60;45.40;;;;;;4965493;29;20221;-72
2023/07/05 13:01:44;;;;;;;4.13;1.60;;;34.20;45.50;;;;;;4965950;28;20031;-73
2023/07/05 13:04:13;;;;;;;2.63;1.52;;;34.70;44.80;;;;;;4966088;29;20046;-73
2023/07/05 13:06:39;;;;;;;4.22;1.52;;;34.30;45.10;;;;;;4974147;28;20070;-73
2023/07/05 13:09:07;;;;;;;3.42;1.58;;;34.30;44.40;;;;;;4984885;28;20039;-73
2023/07/05 13:11:33;;;;;;;3.50;1.70;;;33.80;45.10;;;;;;4985077;28;20038;-73
2023/07/05 13:14:01;;;;;;;6.38;1.63;;;33.30;45.30;;;;;;4984613;28;20213;-73
2023/07/05 13:16:28;;;;;;;;;;;34.20;45.30;;;;;;4985358;28;20204;-72
2023/07/05 13:19:05;;;;;;;2.72;1.23;;;34.10;44.50;;;;;;4984809;28;20092;-71
2023/07/05 13:21:45;;;;;;;2.85;1.40;;;34.70;44.00;;;;;;4984932;28;20208;-72
2023/07/05 13:24:26;;;;;;;2.35;1.38;;;34.40;44.50;;;;;;4984788;28;20046;-74
2023/07/05 13:26:53;;;;;;;2.75;1.30;;;35.30;44.10;;;;;;4984349;28;20031;-77
2023/07/05 13:29:28;;;;;;;4.13;1.50;;;35.60;43.30;;;;;;4967885;28;20038;-70
2023/07/05 13:31:55;;;;;;;2.95;1.30;;;35.30;43.60;;;;;;4984338;28;20038;-71
2023/07/05 13:34:22;;;;;;;3.05;1.40;;;36.20;43.60;;;;;;4984869;28;20039;-72
2023/07/05 13:36:59;;;;;;;2.70;1.27;;;36.70;43.60;;;;;;4984158;28;20046;-72
2023/07/05 13:39:26;;;;;;;3.92;1.23;;;37.40;42.00;;;;;;4969549;28;20531;-73
2023/07/05 13:41:53;;;;;;;2.38;1.40;;;37.80;42.60;;;;;;4984230;28;20042;-71
2023/07/05 13:44:20;;;;;;;4.00;1.30;;;38.60;41.50;;;;;;4984560;28;20053;-73
2023/07/05 13:46:49;;;;;;;;;;;37.50;41.80;;;;;;4984275;28;20030;-72
2023/07/05 13:49:15;;;;;;;2.25;1.10;;;36.90;41.70;;;;;;4965719;28;19909;-72
2023/07/05 13:51:46;;;;;;;3.55;1.75;;;37.00;42.40;;;;;;4984360;28;20225;-71
2023/07/05 13:54:13;;;;;;;3.60;1.20;;;37.50;41.90;;;;;;4984254;28;20387;-72
2023/07/05 13:56:38;;;;;;;2.50;1.15;;;37.90;41.60;;;;;;4984530;28;20022;-72
2023/07/05 13:59:09;;;;;;;2.63;1.27;;;38.20;40.90;;;;;;4983486;28;20042;-72
2023/07/05 14:01:44;;;;;;;3.30;1.40;;;37.90;41.00;;;;;;4983861;28;20038;-72
2023/07/05 14:04:11;;;;;;;4.10;1.60;;;38.30;41.60;;;;;;4983899;28;20261;-75
2023/07/05 14:06:37;;;;;;;;;;;37.40;41.60;;;;;;4984343;28;20202;-71
2023/07/05 14:09:04;;;;;;;3.85;1.30;;;37.40;41.20;;;;;;4983560;28;19913;-72
2023/07/05 14:11:36;;;;;;;2.63;1.42;;;36.50;41.60;;;;;;4984111;28;20186;-72
2023/07/05 14:14:10;;;;;;;2.65;1.50;;;35.40;42.60;;;;;;4983294;28;20041;-72
2023/07/05 14:16:36;;;;;;;3.40;1.27;;;34.50;44.00;;;;;;4983856;28;20053;-73
2023/07/05 14:19:03;;;;;;;2.22;1.17;;;34.20;43.10;;;;;;4983406;28;20035;-72
2023/07/05 14:21:31;;;;;;;3.42;1.27;;;32.80;43.80;;;;;;4966565;28;20069;-74
2023/07/05 14:24:03;;;;;;;2.40;1.30;;;32.80;44.80;;;;;;4983200;28;20038;-71
2023/07/05 14:26:30;;;;;;;3.40;1.50;;;33.40;44.20;;;;;;4983944;28;20042;-71
2023/07/05 14:28:56;;;;;;;4.57;1.42;;;33.80;43.70;;;;;;4983863;28;20039;-73
2023/07/05 14:31:25;;;;;;;2.50;1.20;;;34.10;43.20;;;;;;4983897;28;20097;-73
2023/07/05 14:33:51;;;;;;;3.10;1.27;;;33.40;44.40;;;;;;4983391;28;20026;-72
2023/07/05 14:36:18;;;;;;;3.55;1.40;;;32.40;44.60;;;;;;4984003;28;20162;-72
2023/07/05 14:38:45;;;;;;;3.03;1.40;;;32.20;44.60;;;;;;4983827;28;20035;-73
2023/07/05 14:41:23;;;;;;;3.00;1.20;;;31.50;45.30;;;;;;4983300;28;20019;-73
2023/07/05 14:43:52;;;;;;;3.05;1.15;;;30.60;46.60;;;;;;4983558;28;20513;-72
2023/07/05 14:46:21;;;;;;;3.20;1.50;;;31.30;46.20;;;;;;4983648;28;20340;-72
2023/07/05 14:48:48;;;;;;;3.72;1.30;;;31.00;45.80;;;;;;4983203;28;20038;-73
2023/07/05 14:51:21;;;;;;;3.95;1.45;;;30.70;46.50;;;;;;4983846;28;20058;-73
2023/07/05 14:53:47;;;;;;;2.30;1.10;;;31.20;45.80;;;;;;4983676;28;20038;-72
2023/07/05 14:56:13;;;;;;;2.92;1.10;;;31.40;46.10;;;;;;4983683;28;20043;-74
2023/07/05 14:58:38;;;;;;;2.47;1.33;;;32.20;45.20;;;;;;4983830;28;20042;-70
2023/07/05 15:01:06;;;;;;;1.90;1.08;;;32.40;44.90;;;;;;4984740;28;20018;-71
2023/07/05 15:03:39;;;;;;;2.45;1.05;;;33.20;44.70;;;;;;4987759;28;20054;-72
2023/07/05 15:06:08;;;;;;;2.80;1.33;;;33.50;44.30;;;;;;4986929;28;20034;-72
2023/07/05 15:08:34;;;;;;;3.83;1.27;;;33.60;44.20;;;;;;4987718;28;20027;-72
2023/07/05 15:11:00;;;;;;;2.85;1.20;;;33.50;44.50;;;;;;4987098;28;20033;-73
2023/07/05 15:13:30;;;;;;;3.53;1.30;;;33.80;44.00;;;;;;4987295;28;20022;-73
2023/07/05 15:15:56;;;;;;;2.58;1.20;;;34.20;43.50;;;;;;4987104;28;20038;-73
2023/07/05 15:18:25;;;;;;;2.83;1.20;;;35.70;43.20;;;;;;4987042;28;20045;-73
2023/07/05 15:20:51;;;;;;;5.45;1.70;;;35.90;42.70;;;;;;4986666;28;20220;-73
2023/07/05 15:23:17;;;;;;;2.78;1.30;;;36.40;42.30;;;;;;4986980;28;20548;-72
2023/07/05 15:25:43;;;;;;;3.13;1.30;;;36.10;42.20;;;;;;4987132;28;20034;-73
2023/07/05 15:28:08;;;;;;;2.75;1.10;;;35.50;42.60;;;;;;4986245;28;20254;-73
2023/07/05 15:30:34;;;;;;;3.63;1.27;;;36.00;42.70;;;;;;4987273;28;20031;-72
2023/07/05 15:33:00;;;;;;;3.33;1.20;;;36.00;42.40;;;;;;4986331;28;20034;-73
2023/07/05 15:35:26;;;;;;;3.20;1.48;;;36.50;42.10;;;;;;4986774;28;20038;-72
2023/07/05 15:37:53;;;;;;;2.42;1.25;;;35.90;42.10;;;;;;4969380;28;20090;-72
2023/07/05 15:40:19;;;;;;;2.08;1.20;;;34.70;42.90;;;;;;4987306;28;20062;-72
2023/07/05 15:42:50;;;;;;;3.65;1.30;;;33.40;43.70;;;;;;4987191;28;20037;-71
2023/07/05 15:45:24;;;;;;;2.28;1.20;;;34.60;43.40;;;;;;4986661;28;20073;-74
2023/07/05 15:47:54;;;;;;;3.88;1.25;;;35.50;43.10;;;;;;4986855;28;20041;-72
2023/07/05 15:50:27;;;;;;;3.55;1.58;;;37.00;42.30;;;;;;4986685;28;20107;-72
2023/07/05 15:52:56;;;;;;;3.75;1.30;;;37.80;42.20;;;;;;4986649;28;20320;-72
2023/07/05 15:55:23;;;;;;;2.30;1.25;;;38.80;40.60;;;;;;4986446;28;20034;-71
2023/07/05 15:57:51;;;;;;;2.42;1.05;;;40.20;40.50;;;;;;4986706;28;20018;-71
2023/07/05 16:00:26;;;;;;;1.83;1.10;;;40.60;39.50;;;;;;4986122;28;20078;-72
2023/07/05 16:02:59;;;;;;;2.10;1.20;;;41.20;39.30;;;;;;4986197;28;20069;-71
2023/07/05 16:05:31;;;;;;;2.72;1.13;;;39.50;39.50;;;;;;4986679;28;20062;-73
2023/07/05 16:07:58;;;;;;;1.77;0.98;;;39.20;39.80;;;;;;4985732;28;20039;-73
2023/07/05 16:10:24;;;;;;;4.35;1.30;;;38.60;40.30;;;;;;4986327;28;20057;-72
2023/07/05 16:12:50;;;;;;;1.98;0.90;;;37.90;40.50;;;;;;4986686;28;20034;-71
2023/07/05 16:15:17;;;;;;;2.30;1.07;;;37.80;40.60;;;;;;4977161;28;20035;-72
2023/07/05 16:17:43;;;;;;;4.07;1.25;;;37.90;40.90;;;;;;4994833;28;20034;-69
2023/07/05 16:20:10;;;;;;;2.30;1.13;;;37.40;40.80;;;;;;4991760;28;20054;-72
2023/07/05 16:22:35;;;;;;;2.83;1.50;;;35.80;41.20;;;;;;4989116;28;20019;-70
2023/07/05 16:25:01;;;;;;;2.33;1.05;;;34.60;42.10;;;;;;4987055;28;20035;-71
2023/07/05 16:27:27;;;;;;;3.03;1.33;;;33.10;43.60;;;;;;4988360;28;20055;-75
2023/07/05 16:29:53;;;;;;;3.63;1.75;;;33.00;43.80;;;;;;4987749;28;20027;-76
2023/07/05 16:32:18;;;;;;;3.60;1.20;;;33.60;43.50;;;;;;4985930;28;20304;-73
2023/07/05 16:34:44;;;;;;;2.88;1.13;;;34.70;42.80;;;;;;4986083;28;20030;-72
2023/07/05 16:37:10;;;;;;;2.28;0.85;;;35.70;42.10;;;;;;4985391;28;20053;-72
2023/07/05 16:39:36;;;;;;;2.40;1.00;;;36.10;41.80;;;;;;4985541;28;20324;-73
2023/07/05 16:42:02;;;;;;;5.20;1.10;;;36.00;41.70;;;;;;4985798;28;20066;-72
2023/07/05 16:44:28;;;;;;;2.67;1.20;;;36.10;41.60;;;;;;4985965;28;20019;-73
2023/07/05 16:46:55;;;;;;;4.82;1.35;;;35.20;41.70;;;;;;4985555;28;20098;-73
2023/07/05 16:49:22;;;;;;;3.30;1.30;;;35.30;41.70;;;;;;4985676;28;20026;-77
2023/07/05 16:51:48;;;;;;;2.47;1.10;;;35.10;42.30;;;;;;4986011;28;20039;-73
2023/07/05 16:54:14;;;;;;;2.40;1.13;;;35.10;42.20;;;;;;4984952;28;20440;-72
2023/07/05 16:56:41;;;;;;;3.58;1.20;;;34.70;42.40;;;;;;4986982;28;20035;-73
2023/07/05 16:59:07;;;;;;;2.17;1.10;;;34.30;42.70;;;;;;4970785;28;20094;-74
2023/07/05 17:01:33;;;;;;;2.50;1.17;;;33.60;42.90;;;;;;4988025;28;20217;-72
2023/07/05 17:03:59;;;;;;;2.67;1.30;;;32.30;43.90;;;;;;4985568;28;20244;-71
2023/07/05 17:06:25;;;;;;;3.15;1.20;;;31.30;45.40;;;;;;4984084;28;20069;-73
2023/07/05 17:08:51;;;;;;;3.13;1.15;;;31.30;45.30;;;;;;4968225;28;20035;-70
2023/07/05 17:11:18;;;;;;;3.10;1.45;;;31.20;44.90;;;;;;4984655;28;20026;-72
2023/07/05 17:13:44;;;;;;;3.00;1.42;;;31.70;44.90;;;;;;4985431;28;20105;-74
2023/07/05 17:16:14;;;;;;;6.03;1.40;;;32.60;44.60;;;;;;4985147;28;20245;-73
2023/07/05 17:18:40;;;;;;;2.65;1.10;;;33.40;43.80;;;;;;4985611;28;20317;-72
2023/07/05 17:21:13;;;;;;;3.92;1.20;;;34.00;42.90;;;;;;4984741;28;20042;-73
2023/07/05 17:23:43;;;;;;;4.18;1.50;;;33.20;43.60;;;;;;4985034;28;20097;-73
2023/07/05 17:26:12;;;;;;;3.08;1.20;;;32.40;44.20;;;;;;4984054;28;20317;-72
2023/07/05 17:28:41;;;;;;;;;;;31.90;44.60;;;;;;4985388;28;20035;-73
2023/07/05 17:31:16;;;;;;;4.05;1.33;;;31.90;44.70;;;;;;4984520;28;19912;-73
2023/07/05 17:33:43;;;;;;;3.17;1.40;;;32.50;44.40;;;;;;4968114;28;20038;-73
2023/07/05 17:36:11;;;;;;;3.60;1.48;;;32.50;44.20;;;;;;4984360;28;20027;-73
2023/07/05 17:38:38;;;;;;;2.97;1.30;;;32.60;43.90;;;;;;4985102;28;20065;-73
2023/07/05 17:41:07;;;;;;;2.90;1.20;;;32.70;43.60;;;;;;4984438;28;20045;-73
2023/07/05 17:43:36;;;;;;;4.00;1.48;;;33.00;43.70;;;;;;4985028;28;20018;-73
2023/07/05 17:46:18;;;;;;;2.50;1.17;;;33.50;43.40;;;;;;4984321;28;20249;-73
2023/07/05 17:48:44;;;;;;;2.95;1.20;;;33.40;43.10;;;;;;4985005;28;20050;-73
2023/07/05 17:51:09;;;;;;;2.78;1.20;;;33.40;43.40;;;;;;4984328;28;20205;-73
2023/07/05 17:53:35;;;;;;;4.55;1.98;;;33.50;43.50;;;;;;4984842;28;20023;-73
2023/07/05 17:56:02;;;;;;;3.03;1.33;;;33.60;43.60;;;;;;4984195;28;20034;-74
2023/07/05 17:58:28;;;;;;;2.42;1.05;;;33.60;43.30;;;;;;4984902;28;20046;-75
2023/07/05 18:00:53;;;;;;;2.60;1.08;;;33.30;43.80;;;;;;4984354;28;20027;-72
2023/07/05 18:03:20;;;;;;;2.65;1.00;;;33.20;44.80;;;;;;4983996;28;20059;-74
2023/07/05 18:05:46;;;;;;;3.40;1.65;;;33.00;43.80;;;;;;4984636;28;20101;-75